sensor_id;sensor_type;location;lat;lon;timestamp;pressure;altitude;pressure_sealevel;temperature;humidity
30463;BME280;17256;43.618;25.336;2023-04-22T00:02:01;99932.97;;;10.44;100.00
30463;BME280;17256;43.618;25.336;2023-04-22T00:04:27;99978.13;;;10.68;100.00
30463;BME280;17256;43.618;25.336;2023-04-22T00:06:53;100267.28;;;12.39;100.00
30463;BME280;17256;43.618;25.336;2023-04-22T00:09:18;100424.81;;;13.12;100.00
30463;BME280;17256;43.618;25.336;2023-04-22T00:12:09;100234.81;;;12.16;100.00
30463;BME280;17256;43.618;25.336;2023-04-22T00:18:15;100114.69;;;11.25;100.00
30463;BME280;17256;43.618;25.336;2023-04-22T00:20:54;100106.25;;;11.20;100.00
30463;BME280;17256;43.618;25.336;2023-04-22T00:27:48;100406.22;;;13.01;100.00
30463;BME280;17256;43.618;25.336;2023-04-22T00:30:17;100003.28;;;10.52;100.00
30463;BME280;17256;43.618;25.336;2023-04-22T00:33:12;100418.81;;;12.90;100.00
30463;BME280;17256;43.618;25.336;2023-04-22T00:40:14;100173.28;;;11.19;100.00
30463;BME280;17256;43.618;25.336;2023-04-22T00:42:51;99943.34;;;9.69;100.00
30463;BME280;17256;43.618;25.336;2023-04-22T00:45:39;99966.97;;;9.70;100.00
30463;BME280;17256;43.618;25.336;2023-04-22T00:48:12;100104.84;;;10.71;100.00
30463;BME280;17256;43.618;25.336;2023-04-22T00:50:41;100200.31;;;11.09;100.00
30463;BME280;17256;43.618;25.336;2023-04-22T00:53:12;99983.84;;;9.80;100.00
30463;BME280;17256;43.618;25.336;2023-04-22T00:56:08;100001.13;;;9.87;100.00
30463;BME280;17256;43.618;25.336;2023-04-22T00:58:59;100034.06;;;10.07;100.00
30463;BME280;17256;43.618;25.336;2023-04-22T01:02:00;100167.78;;;10.86;100.00
30463;BME280;17256;43.618;25.336;2023-04-22T01:04:41;100178.78;;;10.86;100.00
30463;BME280;17256;43.618;25.336;2023-04-22T01:08:03;100179.22;;;10.76;100.00
30463;BME280;17256;43.618;25.336;2023-04-22T01:11:30;100442.06;;;12.43;100.00
30463;BME280;17256;43.618;25.336;2023-04-22T01:14:44;100349.81;;;11.87;100.00
30463;BME280;17256;43.618;25.336;2023-04-22T01:17:25;99980.88;;;9.75;100.00
30463;BME280;17256;43.618;25.336;2023-04-22T01:23:26;100164.41;;;10.84;100.00
30463;BME280;17256;43.618;25.336;2023-04-22T01:26:43;100455.34;;;12.59;100.00
30463;BME280;17256;43.618;25.336;2023-04-22T01:29:31;100007.47;;;9.81;100.00
30463;BME280;17256;43.618;25.336;2023-04-22T01:32:15;100447.72;;;12.61;100.00
30463;BME280;17256;43.618;25.336;2023-04-22T01:34:47;100445.41;;;12.58;100.00
30463;BME280;17256;43.618;25.336;2023-04-22T01:37:18;99991.44;;;9.98;100.00
30463;BME280;17256;43.618;25.336;2023-04-22T01:40:02;100249.34;;;11.65;100.00
30463;BME280;17256;43.618;25.336;2023-04-22T01:42:36;99978.78;;;9.84;100.00
30463;BME280;17256;43.618;25.336;2023-04-22T01:45:21;100431.06;;;12.43;100.00
30463;BME280;17256;43.618;25.336;2023-04-22T01:48:03;99993.91;;;9.60;100.00
30463;BME280;17256;43.618;25.336;2023-04-22T01:51:06;99964.13;;;9.37;100.00
30463;BME280;17256;43.618;25.336;2023-04-22T01:53:47;100183.22;;;11.00;100.00
30463;BME280;17256;43.618;25.336;2023-04-22T01:59:43;99940.34;;;9.64;100.00
30463;BME280;17256;43.618;25.336;2023-04-22T02:05:39;100302.00;;;11.82;100.00
30463;BME280;17256;43.618;25.336;2023-04-22T02:08:11;100021.19;;;10.14;100.00
30463;BME280;17256;43.618;25.336;2023-04-22T02:11:27;100190.81;;;11.25;100.00
30463;BME280;17256;43.618;25.336;2023-04-22T02:14:34;100291.41;;;11.85;100.00
30463;BME280;17256;43.618;25.336;2023-04-22T02:17:27;100423.13;;;12.66;100.00
30463;BME280;17256;43.618;25.336;2023-04-22T02:19:55;100339.19;;;12.17;100.00
30463;BME280;17256;43.618;25.336;2023-04-22T02:22:36;100256.94;;;11.69;100.00
30463;BME280;17256;43.618;25.336;2023-04-22T02:25:11;99979.63;;;9.98;100.00
30463;BME280;17256;43.618;25.336;2023-04-22T02:28:05;100405.34;;;12.62;100.00
30463;BME280;17256;43.618;25.336;2023-04-22T02:31:36;100137.59;;;10.93;100.00
30463;BME280;17256;43.618;25.336;2023-04-22T02:34:18;100105.25;;;10.75;100.00
30463;BME280;17256;43.618;25.336;2023-04-22T02:36:43;99961.91;;;9.94;100.00
30463;BME280;17256;43.618;25.336;2023-04-22T02:39:09;100116.00;;;10.90;100.00
30463;BME280;17256;43.618;25.336;2023-04-22T02:41:35;100135.06;;;10.91;100.00
30463;BME280;17256;43.618;25.336;2023-04-22T02:44:01;100113.72;;;10.67;100.00
30463;BME280;17256;43.618;25.336;2023-04-22T02:46:27;100252.72;;;11.67;100.00
30463;BME280;17256;43.618;25.336;2023-04-22T02:48:53;100124.69;;;10.80;100.00
30463;BME280;17256;43.618;25.336;2023-04-22T02:51:20;100066.19;;;10.60;100.00
30463;BME280;17256;43.618;25.336;2023-04-22T02:53:46;100297.69;;;12.12;100.00
30463;BME280;17256;43.618;25.336;2023-04-22T02:56:12;99979.84;;;10.03;100.00
30463;BME280;17256;43.618;25.336;2023-04-22T02:58:37;100134.59;;;10.88;100.00
30463;BME280;17256;43.618;25.336;2023-04-22T03:01:04;100131.00;;;10.87;100.00
30463;BME280;17256;43.618;25.336;2023-04-22T03:03:30;100422.50;;;12.57;100.00
30463;BME280;17256;43.618;25.336;2023-04-22T03:05:56;100204.72;;;11.36;100.00
30463;BME280;17256;43.618;25.336;2023-04-22T03:08:22;100131.25;;;10.92;100.00
30463;BME280;17256;43.618;25.336;2023-04-22T03:10:48;99923.72;;;9.72;100.00
30463;BME280;17256;43.618;25.336;2023-04-22T03:13:20;100193.31;;;11.39;100.00
30463;BME280;17256;43.618;25.336;2023-04-22T03:15:46;100036.44;;;10.43;100.00
30463;BME280;17256;43.618;25.336;2023-04-22T03:18:13;100413.97;;;12.79;100.00
30463;BME280;17256;43.618;25.336;2023-04-22T03:20:38;100157.81;;;11.25;100.00
30463;BME280;17256;43.618;25.336;2023-04-22T03:23:04;99993.97;;;10.06;100.00
30463;BME280;17256;43.618;25.336;2023-04-22T03:25:32;100150.44;;;11.19;100.00
30463;BME280;17256;43.618;25.336;2023-04-22T03:27:58;100333.84;;;12.29;100.00
30463;BME280;17256;43.618;25.336;2023-04-22T03:30:24;100197.97;;;11.46;100.00
30463;BME280;17256;43.618;25.336;2023-04-22T03:32:50;100245.91;;;11.76;100.00
30463;BME280;17256;43.618;25.336;2023-04-22T03:35:21;100217.81;;;11.67;100.00
30463;BME280;17256;43.618;25.336;2023-04-22T03:37:49;100254.56;;;11.93;100.00
30463;BME280;17256;43.618;25.336;2023-04-22T03:40:22;100246.31;;;11.86;100.00
30463;BME280;17256;43.618;25.336;2023-04-22T03:42:48;100250.75;;;11.94;100.00
30463;BME280;17256;43.618;25.336;2023-04-22T03:45:16;100277.34;;;12.20;100.00
30463;BME280;17256;43.618;25.336;2023-04-22T03:47:47;100360.63;;;12.60;100.00
30463;BME280;17256;43.618;25.336;2023-04-22T03:50:24;100239.97;;;11.86;100.00
30463;BME280;17256;43.618;25.336;2023-04-22T03:52:52;100246.50;;;11.98;100.00
30463;BME280;17256;43.618;25.336;2023-04-22T03:55:20;100199.59;;;11.60;100.00
30463;BME280;17256;43.618;25.336;2023-04-22T03:57:48;100092.31;;;11.08;100.00
30463;BME280;17256;43.618;25.336;2023-04-22T04:00:14;100311.56;;;12.37;100.00
30463;BME280;17256;43.618;25.336;2023-04-22T04:02:42;100352.41;;;12.53;100.00
30463;BME280;17256;43.618;25.336;2023-04-22T04:11:07;100090.25;;;10.91;100.00
30463;BME280;17256;43.618;25.336;2023-04-22T04:14:11;100207.69;;;11.35;100.00
30463;BME280;17256;43.618;25.336;2023-04-22T04:16:47;100195.03;;;11.27;100.00
30463;BME280;17256;43.618;25.336;2023-04-22T04:19:25;100274.31;;;11.50;100.00
30463;BME280;17256;43.618;25.336;2023-04-22T04:21:51;100048.81;;;9.86;100.00
30463;BME280;17256;43.618;25.336;2023-04-22T04:24:17;100227.38;;;11.12;100.00
30463;BME280;17256;43.618;25.336;2023-04-22T04:26:46;100335.63;;;11.77;100.00
30463;BME280;17256;43.618;25.336;2023-04-22T04:29:21;100150.91;;;10.69;100.00
30463;BME280;17256;43.618;25.336;2023-04-22T04:32:10;100209.22;;;11.04;100.00
30463;BME280;17256;43.618;25.336;2023-04-22T04:34:50;100072.47;;;10.01;100.00
30463;BME280;17256;43.618;25.336;2023-04-22T04:37:45;100064.94;;;10.29;100.00
30463;BME280;17256;43.618;25.336;2023-04-22T04:40:14;100302.44;;;11.52;100.00
30463;BME280;17256;43.618;25.336;2023-04-22T04:43:21;100519.22;;;13.14;100.00
30463;BME280;17256;43.618;25.336;2023-04-22T04:46:15;100214.69;;;11.44;100.00
30463;BME280;17256;43.618;25.336;2023-04-22T04:49:28;100436.47;;;12.69;100.00
30463;BME280;17256;43.618;25.336;2023-04-22T04:52:01;100105.06;;;10.76;100.00
30463;BME280;17256;43.618;25.336;2023-04-22T04:55:22;100511.34;;;13.24;100.00
30463;BME280;17256;43.618;25.336;2023-04-22T04:57:56;100262.63;;;11.75;100.00
30463;BME280;17256;43.618;25.336;2023-04-22T05:00:25;100250.53;;;11.89;100.00
30463;BME280;17256;43.618;25.336;2023-04-22T05:02:56;100394.41;;;12.87;100.00
30463;BME280;17256;43.618;25.336;2023-04-22T05:05:25;100361.91;;;12.64;100.00
30463;BME280;17256;43.618;25.336;2023-04-22T05:07:53;100280.41;;;11.92;100.00
30463;BME280;17256;43.618;25.336;2023-04-22T05:10:29;100379.47;;;12.63;100.00
30463;BME280;17256;43.618;25.336;2023-04-22T05:13:00;100300.22;;;12.20;100.00
30463;BME280;17256;43.618;25.336;2023-04-22T05:15:41;100528.66;;;13.44;100.00
30463;BME280;17256;43.618;25.336;2023-04-22T05:18:10;100355.72;;;12.17;100.00
30463;BME280;17256;43.618;25.336;2023-04-22T05:20:37;100372.25;;;12.04;100.00
30463;BME280;17256;43.618;25.336;2023-04-22T05:23:08;100350.47;;;11.83;100.00
30463;BME280;17256;43.618;25.336;2023-04-22T05:26:05;100364.22;;;11.83;100.00
30463;BME280;17256;43.618;25.336;2023-04-22T05:28:30;100411.53;;;12.38;100.00
30463;BME280;17256;43.618;25.336;2023-04-22T05:30:56;100395.53;;;12.15;100.00
30463;BME280;17256;43.618;25.336;2023-04-22T05:33:25;100291.00;;;11.55;100.00
30463;BME280;17256;43.618;25.336;2023-04-22T05:35:51;100267.34;;;11.41;100.00
30463;BME280;17256;43.618;25.336;2023-04-22T05:38:18;100275.31;;;11.76;100.00
30463;BME280;17256;43.618;25.336;2023-04-22T05:40:44;100235.13;;;11.75;100.00
30463;BME280;17256;43.618;25.336;2023-04-22T05:46:51;100552.00;;;13.80;100.00
30463;BME280;17256;43.618;25.336;2023-04-22T05:49:46;100178.72;;;11.46;100.00
30463;BME280;17256;43.618;25.336;2023-04-22T05:52:15;100266.50;;;12.25;100.00
30463;BME280;17256;43.618;25.336;2023-04-22T05:54:57;100446.75;;;13.45;100.00
30463;BME280;17256;43.618;25.336;2023-04-22T05:57:22;100450.84;;;13.29;100.00
30463;BME280;17256;43.618;25.336;2023-04-22T05:59:48;100312.41;;;12.38;100.00
30463;BME280;17256;43.618;25.336;2023-04-22T06:02:14;100437.97;;;13.23;100.00
30463;BME280;17256;43.618;25.336;2023-04-22T06:04:41;100301.22;;;12.32;100.00
30463;BME280;17256;43.618;25.336;2023-04-22T06:07:07;100130.16;;;11.06;100.00
30463;BME280;17256;43.618;25.336;2023-04-22T06:09:32;100299.97;;;12.28;100.00
30463;BME280;17256;43.618;25.336;2023-04-22T06:11:58;100288.69;;;12.43;100.00
30463;BME280;17256;43.618;25.336;2023-04-22T06:14:24;100443.75;;;13.46;100.00
30463;BME280;17256;43.618;25.336;2023-04-22T06:16:50;100508.44;;;13.89;100.00
30463;BME280;17256;43.618;25.336;2023-04-22T06:19:52;100593.22;;;14.69;100.00
30463;BME280;17256;43.618;25.336;2023-04-22T06:22:42;100365.38;;;13.54;100.00
30463;BME280;17256;43.618;25.336;2023-04-22T06:25:08;100211.50;;;12.81;100.00
30463;BME280;17256;43.618;25.336;2023-04-22T06:27:34;100345.91;;;13.74;100.00
30463;BME280;17256;43.618;25.336;2023-04-22T06:30:00;100402.25;;;14.09;100.00
30463;BME280;17256;43.618;25.336;2023-04-22T06:32:28;100470.84;;;14.62;100.00
30463;BME280;17256;43.618;25.336;2023-04-22T06:34:56;100503.94;;;14.69;100.00
30463;BME280;17256;43.618;25.336;2023-04-22T06:43:01;100513.53;;;14.85;100.00
30463;BME280;17256;43.618;25.336;2023-04-22T06:45:51;100374.78;;;13.96;100.00
30463;BME280;17256;43.618;25.336;2023-04-22T06:48:29;100353.78;;;13.95;100.00
30463;BME280;17256;43.618;25.336;2023-04-22T06:51:19;100447.19;;;13.98;100.00
30463;BME280;17256;43.618;25.336;2023-04-22T06:53:45;100480.47;;;14.28;100.00
30463;BME280;17256;43.618;25.336;2023-04-22T06:56:14;100412.03;;;13.87;100.00
30463;BME280;17256;43.618;25.336;2023-04-22T06:58:40;100234.66;;;12.42;100.00
30463;BME280;17256;43.618;25.336;2023-04-22T07:01:06;100206.47;;;12.02;100.00
30463;BME280;17256;43.618;25.336;2023-04-22T07:03:32;100541.59;;;13.82;100.00
30463;BME280;17256;43.618;25.336;2023-04-22T07:06:07;100630.16;;;14.75;100.00
30463;BME280;17256;43.618;25.336;2023-04-22T07:08:33;100475.59;;;14.05;100.00
30463;BME280;17256;43.618;25.336;2023-04-22T07:10:59;100520.34;;;14.39;100.00
30463;BME280;17256;43.618;25.336;2023-04-22T07:13:45;100578.81;;;14.86;100.00
30463;BME280;17256;43.618;25.336;2023-04-22T07:16:10;100337.91;;;13.91;100.00
30463;BME280;17256;43.618;25.336;2023-04-22T07:18:36;100372.50;;;13.93;100.00
30463;BME280;17256;43.618;25.336;2023-04-22T07:24:57;100241.94;;;13.49;100.00
30463;BME280;17256;43.618;25.336;2023-04-22T07:37:58;100404.41;;;14.07;100.00
30463;BME280;17256;43.618;25.336;2023-04-22T07:40:50;100679.69;;;16.18;100.00
30463;BME280;17256;43.618;25.336;2023-04-22T07:43:37;100266.84;;;13.36;100.00
30463;BME280;17256;43.618;25.336;2023-04-22T07:46:28;100502.03;;;14.88;100.00
30463;BME280;17256;43.618;25.336;2023-04-22T07:49:17;100395.66;;;14.10;100.00
30463;BME280;17256;43.618;25.336;2023-04-22T07:51:45;100415.00;;;14.10;100.00
30463;BME280;17256;43.618;25.336;2023-04-22T07:54:11;100582.44;;;15.04;100.00
30463;BME280;17256;43.618;25.336;2023-04-22T07:56:38;100429.28;;;14.51;100.00
30463;BME280;17256;43.618;25.336;2023-04-22T07:59:05;100478.59;;;14.72;100.00
30463;BME280;17256;43.618;25.336;2023-04-22T08:01:33;100418.56;;;14.36;100.00
30463;BME280;17256;43.618;25.336;2023-04-22T08:03:59;100597.66;;;15.32;100.00
30463;BME280;17256;43.618;25.336;2023-04-22T08:06:27;100677.66;;;15.95;100.00
30463;BME280;17256;43.618;25.336;2023-04-22T08:08:57;100700.19;;;15.98;100.00
30463;BME280;17256;43.618;25.336;2023-04-22T08:11:24;100241.19;;;13.36;100.00
30463;BME280;17256;43.618;25.336;2023-04-22T08:13:51;100469.75;;;15.18;100.00
30463;BME280;17256;43.618;25.336;2023-04-22T08:16:17;100446.09;;;15.34;100.00
30463;BME280;17256;43.618;25.336;2023-04-22T08:18:45;100690.78;;;17.01;100.00
30463;BME280;17256;43.618;25.336;2023-04-22T08:21:14;100686.22;;;17.18;100.00
30463;BME280;17256;43.618;25.336;2023-04-22T08:23:40;100295.84;;;15.22;100.00
30463;BME280;17256;43.618;25.336;2023-04-22T08:26:06;100700.56;;;17.50;100.00
30463;BME280;17256;43.618;25.336;2023-04-22T08:28:33;100378.97;;;15.80;99.70
30463;BME280;17256;43.618;25.336;2023-04-22T08:31:05;100596.09;;;17.09;97.89
30463;BME280;17256;43.618;25.336;2023-04-22T08:33:31;100473.84;;;16.76;98.00
30463;BME280;17256;43.618;25.336;2023-04-22T08:35:57;100565.53;;;17.33;96.37
30463;BME280;17256;43.618;25.336;2023-04-22T08:38:22;100445.72;;;16.60;95.94
30463;BME280;17256;43.618;25.336;2023-04-22T08:40:48;100543.81;;;17.30;92.73
30463;BME280;17256;43.618;25.336;2023-04-22T08:43:14;100469.84;;;16.95;92.20
30463;BME280;17256;43.618;25.336;2023-04-22T08:45:41;100514.38;;;17.29;92.47
30463;BME280;17256;43.618;25.336;2023-04-22T08:48:08;100581.72;;;17.88;90.86
30463;BME280;17256;43.618;25.336;2023-04-22T08:50:36;100389.22;;;16.50;90.76
30463;BME280;17256;43.618;25.336;2023-04-22T08:53:08;100594.59;;;17.94;89.33
30463;BME280;17256;43.618;25.336;2023-04-22T08:55:37;100566.91;;;17.99;86.98
30463;BME280;17256;43.618;25.336;2023-04-22T08:58:03;100443.69;;;17.48;83.96
30463;BME280;17256;43.618;25.336;2023-04-22T09:00:32;100464.28;;;17.64;81.51
30463;BME280;17256;43.618;25.336;2023-04-22T09:03:01;100557.13;;;17.96;81.77
30463;BME280;17256;43.618;25.336;2023-04-22T09:05:30;100433.13;;;17.33;81.69
30463;BME280;17256;43.618;25.336;2023-04-22T09:07:58;100592.66;;;18.56;82.15
30463;BME280;17256;43.618;25.336;2023-04-22T09:10:24;100321.22;;;16.59;81.64
30463;BME280;17256;43.618;25.336;2023-04-22T09:12:50;100560.97;;;17.67;82.73
30463;BME280;17256;43.618;25.336;2023-04-22T09:15:18;100489.78;;;17.20;84.94
30463;BME280;17256;43.618;25.336;2023-04-22T09:17:44;100502.66;;;17.38;84.79
30463;BME280;17256;43.618;25.336;2023-04-22T09:20:10;100321.53;;;16.22;85.42
30463;BME280;17256;43.618;25.336;2023-04-22T09:22:42;100337.53;;;16.32;86.50
30463;BME280;17256;43.618;25.336;2023-04-22T09:25:21;100382.00;;;16.49;86.87
30463;BME280;17256;43.618;25.336;2023-04-22T09:27:52;100480.63;;;17.08;88.88
30463;BME280;17256;43.618;25.336;2023-04-22T09:30:26;100279.16;;;16.10;89.39
30463;BME280;17256;43.618;25.336;2023-04-22T09:32:57;100476.06;;;17.14;90.73
30463;BME280;17256;43.618;25.336;2023-04-22T09:35:36;100320.56;;;16.40;90.38
30463;BME280;17256;43.618;25.336;2023-04-22T09:38:04;100498.13;;;17.49;86.77
30463;BME280;17256;43.618;25.336;2023-04-22T09:40:32;100449.84;;;17.50;86.50
30463;BME280;17256;43.618;25.336;2023-04-22T09:43:06;100467.84;;;17.47;83.52
30463;BME280;17256;43.618;25.336;2023-04-22T09:45:37;100275.63;;;16.26;84.15
30463;BME280;17256;43.618;25.336;2023-04-22T09:48:14;100527.31;;;17.63;80.59
30463;BME280;17256;43.618;25.336;2023-04-22T09:50:44;100438.31;;;17.01;82.05
30463;BME280;17256;43.618;25.336;2023-04-22T09:53:14;100434.97;;;16.99;79.94
30463;BME280;17256;43.618;25.336;2023-04-22T09:55:50;100268.91;;;16.11;76.19
30463;BME280;17256;43.618;25.336;2023-04-22T09:58:25;100352.81;;;16.98;74.64
30463;BME280;17256;43.618;25.336;2023-04-22T10:01:03;100679.13;;;19.33;74.70
30463;BME280;17256;43.618;25.336;2023-04-22T10:03:41;100666.50;;;19.48;71.86
30463;BME280;17256;43.618;25.336;2023-04-22T10:06:08;100441.13;;;18.37;70.56
30463;BME280;17256;43.618;25.336;2023-04-22T10:08:34;100284.53;;;17.42;69.52
30463;BME280;17256;43.618;25.336;2023-04-22T10:11:00;100345.13;;;17.79;66.86
30463;BME280;17256;43.618;25.336;2023-04-22T10:13:27;100286.13;;;17.55;67.29
30463;BME280;17256;43.618;25.336;2023-04-22T10:15:54;100293.88;;;17.53;62.16
30463;BME280;17256;43.618;25.336;2023-04-22T10:18:23;100255.25;;;17.35;63.22
30463;BME280;17256;43.618;25.336;2023-04-22T10:20:50;100256.09;;;17.18;60.26
30463;BME280;17256;43.618;25.336;2023-04-22T10:23:19;100307.59;;;17.43;57.51
30463;BME280;17256;43.618;25.336;2023-04-22T10:25:47;100295.16;;;17.62;59.13
30463;BME280;17256;43.618;25.336;2023-04-22T10:28:17;100444.34;;;18.51;60.53
30463;BME280;17256;43.618;25.336;2023-04-22T10:30:43;100308.09;;;17.90;60.99
30463;BME280;17256;43.618;25.336;2023-04-22T10:36:16;100677.47;;;20.15;58.90
30463;BME280;17256;43.618;25.336;2023-04-22T10:41:15;100250.06;;;17.38;55.88
30463;BME280;17256;43.618;25.336;2023-04-22T10:43:46;100262.91;;;17.61;55.05
30463;BME280;17256;43.618;25.336;2023-04-22T10:49:22;100295.34;;;18.55;54.32
30463;BME280;17256;43.618;25.336;2023-04-22T10:51:53;100226.47;;;17.74;52.46
30463;BME280;17256;43.618;25.336;2023-04-22T10:54:59;100300.53;;;18.63;53.15
30463;BME280;17256;43.618;25.336;2023-04-22T10:58:35;100661.91;;;21.05;48.77
30463;BME280;17256;43.618;25.336;2023-04-22T11:02:01;100651.56;;;21.05;48.80
30463;BME280;17256;43.618;25.336;2023-04-22T11:05:26;100655.47;;;21.04;47.78
30463;BME280;17256;43.618;25.336;2023-04-22T11:08:04;100307.16;;;18.62;47.90
30463;BME280;17256;43.618;25.336;2023-04-22T11:10:53;100705.09;;;20.65;44.82
30463;BME280;17256;43.618;25.336;2023-04-22T11:13:40;100370.16;;;18.73;47.53
30463;BME280;17256;43.618;25.336;2023-04-22T11:16:26;100259.41;;;18.04;46.87
30463;BME280;17256;43.618;25.336;2023-04-22T11:19:06;100661.72;;;20.52;47.70
30463;BME280;17256;43.618;25.336;2023-04-22T11:22:13;100226.66;;;17.68;49.01
30463;BME280;17256;43.618;25.336;2023-04-22T11:25:08;100645.47;;;20.76;49.52
30463;BME280;17256;43.618;25.336;2023-04-22T11:28:45;100651.94;;;20.50;46.79
30463;BME280;17256;43.618;25.336;2023-04-22T11:32:05;100501.28;;;19.42;48.99
30463;BME280;17256;43.618;25.336;2023-04-22T11:35:14;100648.00;;;20.46;50.53
30463;BME280;17256;43.618;25.336;2023-04-22T11:37:52;100278.88;;;18.26;48.65
30463;BME280;17256;43.618;25.336;2023-04-22T11:40:24;100470.41;;;19.65;47.98
30463;BME280;17256;43.618;25.336;2023-04-22T11:42:58;100222.50;;;18.31;49.86
30463;BME280;17256;43.618;25.336;2023-04-22T11:45:25;100499.59;;;20.17;48.33
30463;BME280;17256;43.618;25.336;2023-04-22T11:47:52;100238.50;;;18.62;44.84
30463;BME280;17256;43.618;25.336;2023-04-22T11:50:43;100487.56;;;20.11;45.63
30463;BME280;17256;43.618;25.336;2023-04-22T11:53:19;100191.66;;;18.32;45.80
30463;BME280;17256;43.618;25.336;2023-04-22T11:55:50;100380.31;;;19.87;46.00
30463;BME280;17256;43.618;25.336;2023-04-22T11:58:24;100286.91;;;18.88;45.42
30463;BME280;17256;43.618;25.336;2023-04-22T12:01:03;100476.22;;;19.91;45.73
30463;BME280;17256;43.618;25.336;2023-04-22T12:03:42;100265.34;;;18.57;46.95
30463;BME280;17256;43.618;25.336;2023-04-22T12:06:17;100405.97;;;19.35;46.80
30463;BME280;17256;43.618;25.336;2023-04-22T12:08:43;100342.25;;;18.46;49.30
30463;BME280;17256;43.618;25.336;2023-04-22T12:11:11;100389.72;;;18.23;51.11
30463;BME280;17256;43.618;25.336;2023-04-22T12:16:04;100584.66;;;19.71;52.13
30463;BME280;17256;43.618;25.336;2023-04-22T12:18:32;100263.91;;;17.55;51.59
30463;BME280;17256;43.618;25.336;2023-04-22T12:21:12;100492.09;;;18.98;51.48
30463;BME280;17256;43.618;25.336;2023-04-22T12:23:53;100487.25;;;18.71;52.37
30463;BME280;17256;43.618;25.336;2023-04-22T12:26:20;100350.78;;;17.84;54.29
30463;BME280;17256;43.618;25.336;2023-04-22T12:28:46;100363.56;;;18.02;53.43
30463;BME280;17256;43.618;25.336;2023-04-22T12:31:13;100465.28;;;18.92;54.91
30463;BME280;17256;43.618;25.336;2023-04-22T12:33:39;100451.13;;;19.15;54.43
30463;BME280;17256;43.618;25.336;2023-04-22T12:36:08;100484.31;;;19.65;53.36
30463;BME280;17256;43.618;25.336;2023-04-22T12:38:34;100450.72;;;19.28;53.86
30463;BME280;17256;43.618;25.336;2023-04-22T12:41:00;100491.22;;;19.85;53.31
30463;BME280;17256;43.618;25.336;2023-04-22T12:43:26;100467.91;;;19.47;52.89
30463;BME280;17256;43.618;25.336;2023-04-22T12:45:52;100402.09;;;19.36;54.96
30463;BME280;17256;43.618;25.336;2023-04-22T12:48:17;100416.06;;;19.41;54.18
30463;BME280;17256;43.618;25.336;2023-04-22T12:50:43;100442.84;;;18.98;53.72
30463;BME280;17256;43.618;25.336;2023-04-22T12:53:09;100384.09;;;18.34;53.62
30463;BME280;17256;43.618;25.336;2023-04-22T12:55:35;100411.94;;;18.39;54.75
30463;BME280;17256;43.618;25.336;2023-04-22T12:58:00;100370.91;;;18.47;54.69
30463;BME280;17256;43.618;25.336;2023-04-22T13:00:26;100433.53;;;18.88;54.50
30463;BME280;17256;43.618;25.336;2023-04-22T13:02:52;100495.50;;;19.05;54.21
30463;BME280;17256;43.618;25.336;2023-04-22T13:05:18;100447.78;;;18.74;54.66
30463;BME280;17256;43.618;25.336;2023-04-22T13:07:44;100624.50;;;20.15;54.45
30463;BME280;17256;43.618;25.336;2023-04-22T13:10:12;100426.50;;;19.07;54.33
30463;BME280;17256;43.618;25.336;2023-04-22T13:12:39;100450.72;;;19.28;53.17
30463;BME280;17256;43.618;25.336;2023-04-22T13:15:05;100437.19;;;19.59;53.14
30463;BME280;17256;43.618;25.336;2023-04-22T13:17:32;100468.41;;;19.88;51.47
30463;BME280;17256;43.618;25.336;2023-04-22T13:19:58;100433.94;;;19.45;50.38
30463;BME280;17256;43.618;25.336;2023-04-22T13:22:23;100385.56;;;19.02;51.02
30463;BME280;17256;43.618;25.336;2023-04-22T13:24:58;100623.50;;;20.53;52.95
30463;BME280;17256;43.618;25.336;2023-04-22T13:27:24;100458.50;;;19.75;52.14
30463;BME280;17256;43.618;25.336;2023-04-22T13:29:50;100457.84;;;19.95;50.92
30463;BME280;17256;43.618;25.336;2023-04-22T13:32:16;100371.50;;;19.41;51.24
30463;BME280;17256;43.618;25.336;2023-04-22T13:34:41;100525.69;;;20.33;52.54
30463;BME280;17256;43.618;25.336;2023-04-22T13:37:23;100423.34;;;19.69;51.74
30463;BME280;17256;43.618;25.336;2023-04-22T13:39:49;100455.34;;;19.66;50.34
30463;BME280;17256;43.618;25.336;2023-04-22T13:42:15;100468.53;;;19.76;50.07
30463;BME280;17256;43.618;25.336;2023-04-22T13:45:59;100236.13;;;18.76;49.49
30463;BME280;17256;43.618;25.336;2023-04-22T13:49:10;100620.09;;;21.10;52.00
30463;BME280;17256;43.618;25.336;2023-04-22T13:52:09;100609.94;;;21.36;51.71
30463;BME280;17256;43.618;25.336;2023-04-22T13:55:12;100488.84;;;20.63;48.48
30463;BME280;17256;43.618;25.336;2023-04-22T13:58:22;100620.81;;;21.32;47.37
30463;BME280;17256;43.618;25.336;2023-04-22T14:01:47;100367.22;;;19.87;48.35
30463;BME280;17256;43.618;25.336;2023-04-22T14:05:00;100391.31;;;20.04;49.02
30463;BME280;17256;43.618;25.336;2023-04-22T14:07:50;100336.50;;;19.50;47.86
30463;BME280;17256;43.618;25.336;2023-04-22T14:10:58;100490.44;;;20.21;48.36
30463;BME280;17256;43.618;25.336;2023-04-22T14:14:24;100647.63;;;20.64;47.79
30463;BME280;17256;43.618;25.336;2023-04-22T14:18:21;100303.97;;;18.53;48.73
30463;BME280;17256;43.618;25.336;2023-04-22T14:21:41;100297.84;;;19.00;47.60
30463;BME280;17256;43.618;25.336;2023-04-22T14:24:19;100227.38;;;18.62;48.26
30463;BME280;17256;43.618;25.336;2023-04-22T14:27:04;100394.16;;;19.50;47.75